sensor_id;sensor_type;location;lat;lon;timestamp;P1;durP1;ratioP1;P2;durP2;ratioP2
579;SDS011;276;48.392;9.950;2024-03-22T00:02:13;24.67;;;22.27;;
579;SDS011;276;48.392;9.950;2024-03-22T00:04:39;25.50;;;23.03;;
579;SDS011;276;48.392;9.950;2024-03-22T00:07:05;24.70;;;22.10;;
579;SDS011;276;48.392;9.950;2024-03-22T00:09:33;25.73;;;23.50;;
579;SDS011;276;48.392;9.950;2024-03-22T00:11:58;23.90;;;21.60;;
579;SDS011;276;48.392;9.950;2024-03-22T00:14:24;25.17;;;22.37;;
579;SDS011;276;48.392;9.950;2024-03-22T00:16:50;26.23;;;23.57;;
579;SDS011;276;48.392;9.950;2024-03-22T00:19:18;23.47;;;21.27;;
579;SDS011;276;48.392;9.950;2024-03-22T00:21:43;25.20;;;22.70;;
579;SDS011;276;48.392;9.950;2024-03-22T00:24:09;24.53;;;22.03;;
579;SDS011;276;48.392;9.950;2024-03-22T00:26:37;25.67;;;22.40;;
579;SDS011;276;48.392;9.950;2024-03-22T00:29:02;24.87;;;22.33;;
579;SDS011;276;48.392;9.950;2024-03-22T00:31:28;21.23;;;19.33;;
579;SDS011;276;48.392;9.950;2024-03-22T00:33:56;20.70;;;18.80;;
579;SDS011;276;48.392;9.950;2024-03-22T00:36:27;21.00;;;18.93;;
579;SDS011;276;48.392;9.950;2024-03-22T00:38:52;20.57;;;18.67;;
579;SDS011;276;48.392;9.950;2024-03-22T00:41:18;23.07;;;20.67;;
579;SDS011;276;48.392;9.950;2024-03-22T00:43:43;23.60;;;21.20;;
579;SDS011;276;48.392;9.950;2024-03-22T00:46:09;20.90;;;18.80;;
579;SDS011;276;48.392;9.950;2024-03-22T00:48:35;20.60;;;18.60;;
579;SDS011;276;48.392;9.950;2024-03-22T00:51:01;23.17;;;20.90;;
579;SDS011;276;48.392;9.950;2024-03-22T00:53:26;22.57;;;20.20;;
579;SDS011;276;48.392;9.950;2024-03-22T00:55:55;20.90;;;18.70;;
579;SDS011;276;48.392;9.950;2024-03-22T00:58:21;22.03;;;19.87;;
579;SDS011;276;48.392;9.950;2024-03-22T01:00:49;22.47;;;20.07;;
579;SDS011;276;48.392;9.950;2024-03-22T01:03:14;20.53;;;18.60;;
579;SDS011;276;48.392;9.950;2024-03-22T01:05:40;23.10;;;20.60;;
579;SDS011;276;48.392;9.950;2024-03-22T01:08:07;21.80;;;19.67;;
579;SDS011;276;48.392;9.950;2024-03-22T01:10:37;20.67;;;18.50;;
579;SDS011;276;48.392;9.950;2024-03-22T01:13:05;20.93;;;19.00;;
579;SDS011;276;48.392;9.950;2024-03-22T01:15:33;23.70;;;21.30;;
579;SDS011;276;48.392;9.950;2024-03-22T01:18:01;20.60;;;18.60;;
579;SDS011;276;48.392;9.950;2024-03-22T01:20:26;21.50;;;19.20;;
579;SDS011;276;48.392;9.950;2024-03-22T01:22:52;21.67;;;19.40;;
579;SDS011;276;48.392;9.950;2024-03-22T01:25:21;20.80;;;18.70;;
579;SDS011;276;48.392;9.950;2024-03-22T01:27:49;20.93;;;19.10;;
579;SDS011;276;48.392;9.950;2024-03-22T01:30:19;20.70;;;18.60;;
579;SDS011;276;48.392;9.950;2024-03-22T01:32:45;21.93;;;18.30;;
579;SDS011;276;48.392;9.950;2024-03-22T01:35:10;22.30;;;20.10;;
579;SDS011;276;48.392;9.950;2024-03-22T01:37:41;21.47;;;19.50;;
579;SDS011;276;48.392;9.950;2024-03-22T01:40:07;21.60;;;19.30;;
579;SDS011;276;48.392;9.950;2024-03-22T01:42:35;21.20;;;18.90;;
579;SDS011;276;48.392;9.950;2024-03-22T01:45:03;20.43;;;18.43;;
579;SDS011;276;48.392;9.950;2024-03-22T01:47:29;20.07;;;18.20;;
579;SDS011;276;48.392;9.950;2024-03-22T01:49:58;20.87;;;18.77;;
579;SDS011;276;48.392;9.950;2024-03-22T01:52:23;19.63;;;17.53;;
579;SDS011;276;48.392;9.950;2024-03-22T01:54:53;22.50;;;17.60;;
579;SDS011;276;48.392;9.950;2024-03-22T01:57:23;19.70;;;17.80;;
579;SDS011;276;48.392;9.950;2024-03-22T01:59:49;20.23;;;18.23;;
579;SDS011;276;48.392;9.950;2024-03-22T02:02:18;19.50;;;17.50;;
579;SDS011;276;48.392;9.950;2024-03-22T02:04:49;22.17;;;19.83;;
579;SDS011;276;48.392;9.950;2024-03-22T02:07:17;19.67;;;17.67;;
579;SDS011;276;48.392;9.950;2024-03-22T02:09:45;18.97;;;16.93;;
579;SDS011;276;48.392;9.950;2024-03-22T02:12:13;20.23;;;18.27;;
579;SDS011;276;48.392;9.950;2024-03-22T02:14:39;20.47;;;18.50;;
579;SDS011;276;48.392;9.950;2024-03-22T02:17:09;18.83;;;17.07;;
579;SDS011;276;48.392;9.950;2024-03-22T02:19:37;20.87;;;18.67;;
579;SDS011;276;48.392;9.950;2024-03-22T02:22:07;19.67;;;17.47;;
579;SDS011;276;48.392;9.950;2024-03-22T02:24:35;19.43;;;17.50;;
579;SDS011;276;48.392;9.950;2024-03-22T02:27:01;18.63;;;16.63;;
579;SDS011;276;48.392;9.950;2024-03-22T02:29:26;21.00;;;18.40;;
579;SDS011;276;48.392;9.950;2024-03-22T02:31:52;21.53;;;19.33;;
579;SDS011;276;48.392;9.950;2024-03-22T02:34:20;20.40;;;18.30;;
579;SDS011;276;48.392;9.950;2024-03-22T02:36:45;20.33;;;18.43;;
579;SDS011;276;48.392;9.950;2024-03-22T02:39:11;19.37;;;17.33;;
579;SDS011;276;48.392;9.950;2024-03-22T02:41:40;21.40;;;19.30;;
579;SDS011;276;48.392;9.950;2024-03-22T02:44:05;18.40;;;16.57;;
579;SDS011;276;48.392;9.950;2024-03-22T02:46:34;19.20;;;17.27;;
579;SDS011;276;48.392;9.950;2024-03-22T02:49:01;19.43;;;17.53;;
579;SDS011;276;48.392;9.950;2024-03-22T02:51:29;18.20;;;16.40;;
579;SDS011;276;48.392;9.950;2024-03-22T02:53:55;20.00;;;18.00;;
579;SDS011;276;48.392;9.950;2024-03-22T02:56:20;18.03;;;16.43;;
579;SDS011;276;48.392;9.950;2024-03-22T02:58:48;18.33;;;16.50;;
579;SDS011;276;48.392;9.950;2024-03-22T03:01:16;19.97;;;18.17;;
579;SDS011;276;48.392;9.950;2024-03-22T03:03:44;19.47;;;16.47;;
579;SDS011;276;48.392;9.950;2024-03-22T03:06:10;19.80;;;17.80;;
579;SDS011;276;48.392;9.950;2024-03-22T03:08:38;18.77;;;17.00;;
579;SDS011;276;48.392;9.950;2024-03-22T03:11:06;18.10;;;16.17;;
579;SDS011;276;48.392;9.950;2024-03-22T03:13:32;19.73;;;17.63;;
579;SDS011;276;48.392;9.950;2024-03-22T03:15:57;17.53;;;15.57;;
579;SDS011;276;48.392;9.950;2024-03-22T03:18:23;16.60;;;15.10;;
579;SDS011;276;48.392;9.950;2024-03-22T03:20:53;19.20;;;17.37;;
579;SDS011;276;48.392;9.950;2024-03-22T03:23:19;18.87;;;16.63;;
579;SDS011;276;48.392;9.950;2024-03-22T03:25:47;17.77;;;15.97;;
579;SDS011;276;48.392;9.950;2024-03-22T03:28:15;19.30;;;17.40;;
579;SDS011;276;48.392;9.950;2024-03-22T03:30:46;17.13;;;15.53;;
579;SDS011;276;48.392;9.950;2024-03-22T03:33:12;18.20;;;16.40;;
579;SDS011;276;48.392;9.950;2024-03-22T03:35:47;18.80;;;16.27;;
579;SDS011;276;48.392;9.950;2024-03-22T03:38:13;19.67;;;17.57;;
579;SDS011;276;48.392;9.950;2024-03-22T03:40:39;18.40;;;16.67;;
579;SDS011;276;48.392;9.950;2024-03-22T03:43:04;18.70;;;16.90;;
579;SDS011;276;48.392;9.950;2024-03-22T03:45:30;19.10;;;16.43;;
579;SDS011;276;48.392;9.950;2024-03-22T03:47:58;17.93;;;16.13;;
579;SDS011;276;48.392;9.950;2024-03-22T03:50:23;17.20;;;15.50;;
579;SDS011;276;48.392;9.950;2024-03-22T03:52:54;20.00;;;18.03;;
579;SDS011;276;48.392;9.950;2024-03-22T03:55:19;18.90;;;17.07;;
579;SDS011;276;48.392;9.950;2024-03-22T03:57:46;17.10;;;15.30;;
579;SDS011;276;48.392;9.950;2024-03-22T04:00:11;20.00;;;17.53;;
579;SDS011;276;48.392;9.950;2024-03-22T04:02:39;17.77;;;16.07;;
579;SDS011;276;48.392;9.950;2024-03-22T04:05:05;18.57;;;16.60;;
579;SDS011;276;48.392;9.950;2024-03-22T04:07:31;16.13;;;14.53;;
579;SDS011;276;48.392;9.950;2024-03-22T04:10:01;19.03;;;17.30;;
579;SDS011;276;48.392;9.950;2024-03-22T04:12:29;17.80;;;16.10;;
579;SDS011;276;48.392;9.950;2024-03-22T04:14:55;18.33;;;15.37;;
579;SDS011;276;48.392;9.950;2024-03-22T04:17:21;19.90;;;17.90;;
579;SDS011;276;48.392;9.950;2024-03-22T04:19:46;24.27;;;19.87;;
579;SDS011;276;48.392;9.950;2024-03-22T04:22:17;19.37;;;17.33;;
579;SDS011;276;48.392;9.950;2024-03-22T04:24:42;17.27;;;15.57;;
579;SDS011;276;48.392;9.950;2024-03-22T04:27:10;17.77;;;15.97;;
579;SDS011;276;48.392;9.950;2024-03-22T04:29:38;18.37;;;16.47;;
579;SDS011;276;48.392;9.950;2024-03-22T04:32:06;18.67;;;16.93;;
579;SDS011;276;48.392;9.950;2024-03-22T04:34:32;18.07;;;16.40;;
579;SDS011;276;48.392;9.950;2024-03-22T04:36:59;18.70;;;15.70;;
579;SDS011;276;48.392;9.950;2024-03-22T04:39:27;18.30;;;16.40;;
579;SDS011;276;48.392;9.950;2024-03-22T04:41:53;16.60;;;15.00;;
579;SDS011;276;48.392;9.950;2024-03-22T04:44:23;18.87;;;16.80;;
579;SDS011;276;48.392;9.950;2024-03-22T04:46:54;17.67;;;15.87;;
579;SDS011;276;48.392;9.950;2024-03-22T04:49:22;18.67;;;16.87;;
579;SDS011;276;48.392;9.950;2024-03-22T04:51:50;17.53;;;15.57;;
579;SDS011;276;48.392;9.950;2024-03-22T04:54:16;18.23;;;16.10;;
579;SDS011;276;48.392;9.950;2024-03-22T04:56:41;18.00;;;16.00;;
579;SDS011;276;48.392;9.950;2024-03-22T04:59:09;21.27;;;16.00;;
579;SDS011;276;48.392;9.950;2024-03-22T05:01:37;18.50;;;15.90;;
579;SDS011;276;48.392;9.950;2024-03-22T05:04:07;17.40;;;15.60;;
579;SDS011;276;48.392;9.950;2024-03-22T05:06:33;16.43;;;14.60;;
579;SDS011;276;48.392;9.950;2024-03-22T05:09:01;18.23;;;16.43;;
579;SDS011;276;48.392;9.950;2024-03-22T05:11:31;19.67;;;17.83;;
579;SDS011;276;48.392;9.950;2024-03-22T05:13:59;17.53;;;15.63;;
579;SDS011;276;48.392;9.950;2024-03-22T05:16:24;16.73;;;15.03;;
579;SDS011;276;48.392;9.950;2024-03-22T05:18:50;15.93;;;14.33;;
579;SDS011;276;48.392;9.950;2024-03-22T05:21:18;16.63;;;15.07;;
579;SDS011;276;48.392;9.950;2024-03-22T05:23:44;16.53;;;14.83;;
579;SDS011;276;48.392;9.950;2024-03-22T05:26:11;18.53;;;16.83;;
579;SDS011;276;48.392;9.950;2024-03-22T05:28:39;18.63;;;16.73;;
579;SDS011;276;48.392;9.950;2024-03-22T05:31:07;16.70;;;15.00;;
579;SDS011;276;48.392;9.950;2024-03-22T05:33:35;16.10;;;14.60;;
579;SDS011;276;48.392;9.950;2024-03-22T05:36:03;18.37;;;16.43;;
579;SDS011;276;48.392;9.950;2024-03-22T05:38:28;16.67;;;14.97;;
579;SDS011;276;48.392;9.950;2024-03-22T05:40:56;16.03;;;14.20;;
579;SDS011;276;48.392;9.950;2024-03-22T05:43:22;18.63;;;16.57;;
579;SDS011;276;48.392;9.950;2024-03-22T05:45:50;16.07;;;14.57;;
579;SDS011;276;48.392;9.950;2024-03-22T05:48:18;16.77;;;14.87;;
579;SDS011;276;48.392;9.950;2024-03-22T05:50:46;17.23;;;15.43;;
579;SDS011;276;48.392;9.950;2024-03-22T05:53:16;16.47;;;14.97;;
579;SDS011;276;48.392;9.950;2024-03-22T05:55:44;16.00;;;14.30;;
579;SDS011;276;48.392;9.950;2024-03-22T05:58:11;18.57;;;16.60;;
579;SDS011;276;48.392;9.950;2024-03-22T06:00:40;23.00;;;17.40;;
579;SDS011;276;48.392;9.950;2024-03-22T06:03:05;19.70;;;17.63;;
579;SDS011;276;48.392;9.950;2024-03-22T06:05:31;22.17;;;19.37;;
579;SDS011;276;48.392;9.950;2024-03-22T06:07:58;24.53;;;21.60;;
579;SDS011;276;48.392;9.950;2024-03-22T06:10:24;22.23;;;19.90;;
579;SDS011;276;48.392;9.950;2024-03-22T06:12:49;19.43;;;17.37;;
579;SDS011;276;48.392;9.950;2024-03-22T06:15:15;23.93;;;19.40;;
579;SDS011;276;48.392;9.950;2024-03-22T06:17:43;20.23;;;18.03;;
579;SDS011;276;48.392;9.950;2024-03-22T06:20:11;32.03;;;24.07;;
579;SDS011;276;48.392;9.950;2024-03-22T06:22:39;32.63;;;26.10;;
579;SDS011;276;48.392;9.950;2024-03-22T06:25:07;26.20;;;22.40;;
579;SDS011;276;48.392;9.950;2024-03-22T06:27:35;26.80;;;22.47;;
579;SDS011;276;48.392;9.950;2024-03-22T06:30:03;20.53;;;18.50;;
579;SDS011;276;48.392;9.950;2024-03-22T06:32:29;20.40;;;18.30;;
579;SDS011;276;48.392;9.950;2024-03-22T06:34:57;24.87;;;20.37;;
579;SDS011;276;48.392;9.950;2024-03-22T06:37:23;22.80;;;18.90;;
579;SDS011;276;48.392;9.950;2024-03-22T06:39:48;21.47;;;18.10;;
579;SDS011;276;48.392;9.950;2024-03-22T06:42:16;19.43;;;17.43;;
579;SDS011;276;48.392;9.950;2024-03-22T06:44:42;19.57;;;17.57;;
579;SDS011;276;48.392;9.950;2024-03-22T06:47:09;19.50;;;17.53;;
579;SDS011;276;48.392;9.950;2024-03-22T06:49:38;18.37;;;16.67;;
579;SDS011;276;48.392;9.950;2024-03-22T06:52:06;20.57;;;18.63;;
579;SDS011;276;48.392;9.950;2024-03-22T06:54:31;17.87;;;16.23;;
579;SDS011;276;48.392;9.950;2024-03-22T06:56:57;19.17;;;17.17;;
579;SDS011;276;48.392;9.950;2024-03-22T06:59:22;17.37;;;15.77;;
579;SDS011;276;48.392;9.950;2024-03-22T07:01:48;18.47;;;16.63;;
579;SDS011;276;48.392;9.950;2024-03-22T07:04:18;17.10;;;15.40;;
579;SDS011;276;48.392;9.950;2024-03-22T07:06:46;17.13;;;15.33;;
579;SDS011;276;48.392;9.950;2024-03-22T07:09:12;16.20;;;14.50;;
579;SDS011;276;48.392;9.950;2024-03-22T07:11:43;18.43;;;16.70;;
579;SDS011;276;48.392;9.950;2024-03-22T07:14:11;17.70;;;16.10;;
579;SDS011;276;48.392;9.950;2024-03-22T07:16:37;17.07;;;15.27;;
579;SDS011;276;48.392;9.950;2024-03-22T07:19:02;17.97;;;16.37;;
579;SDS011;276;48.392;9.950;2024-03-22T07:21:33;17.33;;;15.47;;
579;SDS011;276;48.392;9.950;2024-03-22T07:23:58;18.47;;;16.67;;
579;SDS011;276;48.392;9.950;2024-03-22T07:26:26;16.90;;;15.30;;
579;SDS011;276;48.392;9.950;2024-03-22T07:28:54;18.13;;;16.50;;
579;SDS011;276;48.392;9.950;2024-03-22T07:31:20;17.73;;;16.03;;
579;SDS011;276;48.392;9.950;2024-03-22T07:33:45;19.23;;;16.07;;
579;SDS011;276;48.392;9.950;2024-03-22T07:36:11;16.53;;;14.93;;
579;SDS011;276;48.392;9.950;2024-03-22T07:38:39;16.33;;;14.60;;
579;SDS011;276;48.392;9.950;2024-03-22T07:41:07;17.03;;;15.63;;
579;SDS011;276;48.392;9.950;2024-03-22T07:43:37;18.60;;;16.77;;
579;SDS011;276;48.392;9.950;2024-03-22T07:46:07;16.67;;;15.03;;
579;SDS011;276;48.392;9.950;2024-03-22T07:48:34;16.37;;;14.83;;
579;SDS011;276;48.392;9.950;2024-03-22T07:51:02;15.30;;;13.90;;
579;SDS011;276;48.392;9.950;2024-03-22T07:53:28;18.67;;;15.50;;
579;SDS011;276;48.392;9.950;2024-03-22T07:55:58;18.53;;;16.77;;
579;SDS011;276;48.392;9.950;2024-03-22T07:58:27;19.13;;;17.07;;
579;SDS011;276;48.392;9.950;2024-03-22T08:00:57;18.97;;;17.27;;
579;SDS011;276;48.392;9.950;2024-03-22T08:03:25;17.20;;;15.50;;
579;SDS011;276;48.392;9.950;2024-03-22T08:05:55;15.80;;;14.33;;
579;SDS011;276;48.392;9.950;2024-03-22T08:08:21;16.30;;;14.63;;
579;SDS011;276;48.392;9.950;2024-03-22T08:10:47;14.77;;;13.23;;
579;SDS011;276;48.392;9.950;2024-03-22T08:13:17;15.20;;;13.70;;
579;SDS011;276;48.392;9.950;2024-03-22T08:15:43;14.60;;;13.20;;
579;SDS011;276;48.392;9.950;2024-03-22T08:18:10;15.90;;;14.40;;
579;SDS011;276;48.392;9.950;2024-03-22T08:20:38;12.40;;;11.40;;
579;SDS011;276;48.392;9.950;2024-03-22T08:23:06;14.57;;;13.17;;
579;SDS011;276;48.392;9.950;2024-03-22T08:25:37;15.33;;;13.90;;
579;SDS011;276;48.392;9.950;2024-03-22T08:28:03;14.07;;;12.87;;
579;SDS011;276;48.392;9.950;2024-03-22T08:30:31;15.80;;;14.40;;
579;SDS011;276;48.392;9.950;2024-03-22T08:33:00;16.37;;;14.80;;
579;SDS011;276;48.392;9.950;2024-03-22T08:35:31;15.33;;;13.90;;
579;SDS011;276;48.392;9.950;2024-03-22T08:37:59;14.80;;;13.50;;
579;SDS011;276;48.392;9.950;2024-03-22T08:40:28;14.40;;;13.13;;
579;SDS011;276;48.392;9.950;2024-03-22T08:42:55;15.47;;;13.97;;
579;SDS011;276;48.392;9.950;2024-03-22T08:45:23;15.83;;;14.43;;
579;SDS011;276;48.392;9.950;2024-03-22T08:47:49;14.47;;;12.67;;
579;SDS011;276;48.392;9.950;2024-03-22T08:50:15;14.67;;;13.17;;
579;SDS011;276;48.392;9.950;2024-03-22T08:52:40;14.13;;;12.73;;
579;SDS011;276;48.392;9.950;2024-03-22T08:55:10;13.67;;;12.43;;
579;SDS011;276;48.392;9.950;2024-03-22T08:57:39;16.33;;;13.67;;
579;SDS011;276;48.392;9.950;2024-03-22T09:00:06;14.60;;;13.10;;
579;SDS011;276;48.392;9.950;2024-03-22T09:02:33;14.37;;;13.10;;
579;SDS011;276;48.392;9.950;2024-03-22T09:05:04;15.53;;;12.93;;
579;SDS011;276;48.392;9.950;2024-03-22T09:07:30;13.90;;;12.60;;
579;SDS011;276;48.392;9.950;2024-03-22T09:09:58;17.97;;;14.00;;
579;SDS011;276;48.392;9.950;2024-03-22T09:12:24;15.50;;;13.97;;
579;SDS011;276;48.392;9.950;2024-03-22T09:14:49;14.80;;;13.40;;
579;SDS011;276;48.392;9.950;2024-03-22T09:17:15;14.23;;;12.83;;
579;SDS011;276;48.392;9.950;2024-03-22T09:19:40;13.40;;;12.03;;
579;SDS011;276;48.392;9.950;2024-03-22T09:22:08;13.97;;;12.57;;
579;SDS011;276;48.392;9.950;2024-03-22T09:24:40;15.43;;;13.60;;
579;SDS011;276;48.392;9.950;2024-03-22T09:27:08;13.80;;;12.50;;
579;SDS011;276;48.392;9.950;2024-03-22T09:29:35;15.50;;;13.67;;
579;SDS011;276;48.392;9.950;2024-03-22T09:32:01;13.00;;;11.90;;
579;SDS011;276;48.392;9.950;2024-03-22T09:34:27;13.60;;;12.40;;
579;SDS011;276;48.392;9.950;2024-03-22T09:36:54;13.57;;;12.20;;
579;SDS011;276;48.392;9.950;2024-03-22T09:39:21;14.27;;;13.00;;
579;SDS011;276;48.392;9.950;2024-03-22T09:41:50;14.37;;;13.07;;
579;SDS011;276;48.392;9.950;2024-03-22T09:44:20;13.47;;;12.17;;
579;SDS011;276;48.392;9.950;2024-03-22T09:46:52;16.33;;;13.40;;
579;SDS011;276;48.392;9.950;2024-03-22T09:49:20;13.47;;;12.17;;
579;SDS011;276;48.392;9.950;2024-03-22T09:51:48;13.23;;;11.93;;
579;SDS011;276;48.392;9.950;2024-03-22T09:54:16;13.33;;;12.17;;
579;SDS011;276;48.392;9.950;2024-03-22T09:56:42;12.50;;;11.50;;
579;SDS011;276;48.392;9.950;2024-03-22T09:59:11;11.80;;;10.50;;
579;SDS011;276;48.392;9.950;2024-03-22T10:01:37;10.50;;;9.47;;
579;SDS011;276;48.392;9.950;2024-03-22T10:04:07;10.07;;;9.17;;
579;SDS011;276;48.392;9.950;2024-03-22T10:06:34;11.93;;;10.80;;
579;SDS011;276;48.392;9.950;2024-03-22T10:09:00;11.00;;;9.87;;
579;SDS011;276;48.392;9.950;2024-03-22T10:11:33;12.33;;;9.10;;
579;SDS011;276;48.392;9.950;2024-03-22T10:13:59;10.70;;;9.03;;
579;SDS011;276;48.392;9.950;2024-03-22T10:16:32;10.13;;;9.20;;
579;SDS011;276;48.392;9.950;2024-03-22T10:19:01;10.50;;;9.60;;
579;SDS011;276;48.392;9.950;2024-03-22T10:21:26;10.33;;;9.53;;
579;SDS011;276;48.392;9.950;2024-03-22T10:23:54;8.90;;;8.20;;
579;SDS011;276;48.392;9.950;2024-03-22T10:26:19;11.03;;;10.10;;
579;SDS011;276;48.392;9.950;2024-03-22T10:28:47;9.90;;;8.90;;
579;SDS011;276;48.392;9.950;2024-03-22T10:31:15;10.10;;;9.10;;
579;SDS011;276;48.392;9.950;2024-03-22T10:33:41;8.33;;;7.53;;
579;SDS011;276;48.392;9.950;2024-03-22T10:36:09;14.03;;;10.30;;
579;SDS011;276;48.392;9.950;2024-03-22T10:38:39;10.17;;;9.27;;
579;SDS011;276;48.392;9.950;2024-03-22T10:41:05;11.40;;;9.70;;
579;SDS011;276;48.392;9.950;2024-03-22T10:43:31;9.97;;;8.97;;
579;SDS011;276;48.392;9.950;2024-03-22T10:46:01;10.73;;;9.60;;
579;SDS011;276;48.392;9.950;2024-03-22T10:48:29;11.07;;;10.10;;
579;SDS011;276;48.392;9.950;2024-03-22T10:50:59;9.53;;;8.73;;
579;SDS011;276;48.392;9.950;2024-03-22T10:53:26;10.70;;;8.77;;
579;SDS011;276;48.392;9.950;2024-03-22T10:55:53;9.50;;;8.70;;
579;SDS011;276;48.392;9.950;2024-03-22T10:58:27;9.67;;;8.80;;
579;SDS011;276;48.392;9.950;2024-03-22T11:00:56;9.80;;;8.90;;
579;SDS011;276;48.392;9.950;2024-03-22T11:03:25;8.77;;;7.80;;
579;SDS011;276;48.392;9.950;2024-03-22T11:05:56;8.93;;;8.13;;
579;SDS011;276;48.392;9.950;2024-03-22T11:08:24;10.17;;;9.13;;
579;SDS011;276;48.392;9.950;2024-03-22T11:10:53;8.30;;;7.60;;
579;SDS011;276;48.392;9.950;2024-03-22T11:13:21;9.53;;;8.73;;
579;SDS011;276;48.392;9.950;2024-03-22T11:15:48;7.90;;;7.20;;
579;SDS011;276;48.392;9.950;2024-03-22T11:18:21;9.07;;;8.03;;
579;SDS011;276;48.392;9.950;2024-03-22T11:20:47;8.93;;;8.00;;
579;SDS011;276;48.392;9.950;2024-03-22T11:23:13;6.73;;;6.13;;
579;SDS011;276;48.392;9.950;2024-03-22T11:25:38;8.97;;;7.70;;
579;SDS011;276;48.392;9.950;2024-03-22T11:28:04;7.83;;;7.17;;
579;SDS011;276;48.392;9.950;2024-03-22T11:30:33;5.67;;;5.17;;
579;SDS011;276;48.392;9.950;2024-03-22T11:33:01;7.80;;;7.07;;
579;SDS011;276;48.392;9.950;2024-03-22T11:35:33;7.07;;;6.37;;
579;SDS011;276;48.392;9.950;2024-03-22T11:38:03;7.13;;;6.53;;
579;SDS011;276;48.392;9.950;2024-03-22T11:40:31;6.17;;;5.57;;
579;SDS011;276;48.392;9.950;2024-03-22T11:42:58;7.63;;;6.93;;
579;SDS011;276;48.392;9.950;2024-03-22T11:45:28;8.90;;;8.10;;
579;SDS011;276;48.392;9.950;2024-03-22T11:47:54;6.70;;;6.20;;
579;SDS011;276;48.392;9.950;2024-03-22T11:50:22;8.90;;;8.10;;
579;SDS011;276;48.392;9.950;2024-03-22T11:52:48;7.50;;;6.90;;
579;SDS011;276;48.392;9.950;2024-03-22T11:55:14;7.30;;;6.70;;
579;SDS011;276;48.392;9.950;2024-03-22T11:57:40;8.40;;;7.70;;
579;SDS011;276;48.392;9.950;2024-03-22T12:00:12;7.17;;;6.53;;
579;SDS011;276;48.392;9.950;2024-03-22T12:02:40;6.53;;;6.03;;
579;SDS011;276;48.392;9.950;2024-03-22T12:05:06;6.87;;;6.20;;
579;SDS011;276;48.392;9.950;2024-03-22T12:07:32;7.70;;;5.70;;
579;SDS011;276;48.392;9.950;2024-03-22T12:09:59;7.37;;;6.77;;
579;SDS011;276;48.392;9.950;2024-03-22T12:12:29;6.90;;;6.30;;
579;SDS011;276;48.392;9.950;2024-03-22T12:14:55;7.33;;;6.63;;
579;SDS011;276;48.392;9.950;2024-03-22T12:17:21;8.87;;;7.97;;
579;SDS011;276;48.392;9.950;2024-03-22T12:19:46;7.20;;;6.60;;
579;SDS011;276;48.392;9.950;2024-03-22T12:22:12;8.50;;;7.10;;
579;SDS011;276;48.392;9.950;2024-03-22T12:24:38;6.60;;;6.10;;
579;SDS011;276;48.392;9.950;2024-03-22T12:27:04;8.53;;;7.33;;
579;SDS011;276;48.392;9.950;2024-03-22T12:29:35;7.63;;;7.00;;
579;SDS011;276;48.392;9.950;2024-03-22T12:32:01;7.13;;;6.40;;
579;SDS011;276;48.392;9.950;2024-03-22T12:34:30;6.43;;;5.83;;
579;SDS011;276;48.392;9.950;2024-03-22T12:36:59;6.50;;;6.00;;
579;SDS011;276;48.392;9.950;2024-03-22T12:39:25;6.40;;;5.90;;
579;SDS011;276;48.392;9.950;2024-03-22T12:41:53;7.03;;;6.43;;
579;SDS011;276;48.392;9.950;2024-03-22T12:44:19;6.50;;;6.00;;
579;SDS011;276;48.392;9.950;2024-03-22T12:46:45;7.63;;;6.93;;
579;SDS011;276;48.392;9.950;2024-03-22T12:49:11;6.37;;;5.87;;
579;SDS011;276;48.392;9.950;2024-03-22T12:51:37;6.83;;;6.30;;
579;SDS011;276;48.392;9.950;2024-03-22T12:54:06;6.70;;;6.20;;
579;SDS011;276;48.392;9.950;2024-03-22T12:56:39;6.40;;;5.90;;
579;SDS011;276;48.392;9.950;2024-03-22T12:59:09;6.23;;;5.67;;
579;SDS011;276;48.392;9.950;2024-03-22T13:01:37;5.13;;;4.33;;
579;SDS011;276;48.392;9.950;2024-03-22T13:04:03;5.67;;;4.40;;
579;SDS011;276;48.392;9.950;2024-03-22T13:06:29;7.10;;;4.80;;
579;SDS011;276;48.392;9.950;2024-03-22T13:08:55;5.37;;;4.87;;
579;SDS011;276;48.392;9.950;2024-03-22T13:11:22;5.57;;;4.70;;
579;SDS011;276;48.392;9.950;2024-03-22T13:13:51;6.37;;;5.27;;
579;SDS011;276;48.392;9.950;2024-03-22T13:16:19;4.90;;;4.20;;
579;SDS011;276;48.392;9.950;2024-03-22T13:18:48;4.43;;;4.10;;
579;SDS011;276;48.392;9.950;2024-03-22T13:21:17;3.70;;;3.40;;
579;SDS011;276;48.392;9.950;2024-03-22T13:23:45;5.60;;;4.87;;
579;SDS011;276;48.392;9.950;2024-03-22T13:26:13;4.97;;;4.50;;
579;SDS011;276;48.392;9.950;2024-03-22T13:28:41;4.80;;;4.50;;
579;SDS011;276;48.392;9.950;2024-03-22T13:31:09;5.10;;;4.60;;
579;SDS011;276;48.392;9.950;2024-03-22T13:33:39;4.50;;;4.07;;
579;SDS011;276;48.392;9.950;2024-03-22T13:36:07;4.87;;;4.10;;
579;SDS011;276;48.392;9.950;2024-03-22T13:38:33;5.40;;;4.90;;
579;SDS011;276;48.392;9.950;2024-03-22T13:41:00;5.17;;;4.70;;
579;SDS011;276;48.392;9.950;2024-03-22T13:43:31;4.70;;;4.30;;
579;SDS011;276;48.392;9.950;2024-03-22T13:45:56;5.43;;;4.17;;
579;SDS011;276;48.392;9.950;2024-03-22T13:48:23;4.20;;;3.70;;
579;SDS011;276;48.392;9.950;2024-03-22T13:50:53;5.03;;;4.73;;
579;SDS011;276;48.392;9.950;2024-03-22T13:53:19;6.67;;;5.60;;
579;SDS011;276;48.392;9.950;2024-03-22T13:55:47;3.80;;;3.50;;
579;SDS011;276;48.392;9.950;2024-03-22T13:58:14;6.73;;;4.70;;
579;SDS011;276;48.392;9.950;2024-03-22T14:00:39;4.50;;;3.60;;
579;SDS011;276;48.392;9.950;2024-03-22T14:03:07;4.30;;;4.00;;
579;SDS011;276;48.392;9.950;2024-03-22T14:05:33;3.80;;;3.50;;
579;SDS011;276;48.392;9.950;2024-03-22T14:07:59;6.33;;;5.00;;
579;SDS011;276;48.392;9.950;2024-03-22T14:10:27;3.43;;;3.13;;
579;SDS011;276;48.392;9.950;2024-03-22T14:12:58;3.17;;;2.87;;
579;SDS011;276;48.392;9.950;2024-03-22T14:15:24;4.33;;;3.47;;
579;SDS011;276;48.392;9.950;2024-03-22T14:17:57;4.43;;;4.00;;
579;SDS011;276;48.392;9.950;2024-03-22T14:20:23;4.40;;;3.47;;
579;SDS011;276;48.392;9.950;2024-03-22T14:22:49;5.00;;;4.47;;
579;SDS011;276;48.392;9.950;2024-03-22T14:25:18;6.27;;;4.50;;
579;SDS011;276;48.392;9.950;2024-03-22T14:27:46;4.47;;;4.07;;
579;SDS011;276;48.392;9.950;2024-03-22T14:30:13;7.90;;;4.90;;
579;SDS011;276;48.392;9.950;2024-03-22T14:32:40;6.53;;;4.50;;
579;SDS011;276;48.392;9.950;2024-03-22T14:35:06;5.40;;;4.90;;
579;SDS011;276;48.392;9.950;2024-03-22T14:37:35;4.23;;;3.27;;
579;SDS011;276;48.392;9.950;2024-03-22T14:40:01;4.03;;;3.63;;
579;SDS011;276;48.392;9.950;2024-03-22T14:42:30;4.97;;;3.43;;
579;SDS011;276;48.392;9.950;2024-03-22T14:44:55;3.97;;;3.60;;
579;SDS011;276;48.392;9.950;2024-03-22T14:47:21;6.60;;;3.83;;
579;SDS011;276;48.392;9.950;2024-03-22T14:49:50;5.43;;;3.87;;
579;SDS011;276;48.392;9.950;2024-03-22T14:52:16;4.77;;;3.50;;
579;SDS011;276;48.392;9.950;2024-03-22T14:54:42;3.93;;;3.50;;
579;SDS011;276;48.392;9.950;2024-03-22T14:57:10;3.47;;;3.17;;
579;SDS011;276;48.392;9.950;2024-03-22T14:59:36;3.90;;;3.40;;
579;SDS011;276;48.392;9.950;2024-03-22T15:02:04;3.83;;;3.53;;
579;SDS011;276;48.392;9.950;2024-03-22T15:04:33;4.43;;;4.00;;
579;SDS011;276;48.392;9.950;2024-03-22T15:07:00;4.60;;;3.70;;
579;SDS011;276;48.392;9.950;2024-03-22T15:09:29;4.13;;;3.83;;
579;SDS011;276;48.392;9.950;2024-03-22T15:11:59;5.00;;;4.43;;
579;SDS011;276;48.392;9.950;2024-03-22T15:14:26;3.77;;;3.37;;
579;SDS011;276;48.392;9.950;2024-03-22T15:16:54;4.07;;;3.77;;
579;SDS011;276;48.392;9.950;2024-03-22T15:19:23;3.97;;;3.57;;
579;SDS011;276;48.392;9.950;2024-03-22T15:21:50;3.83;;;3.60;;
579;SDS011;276;48.392;9.950;2024-03-22T15:24:16;4.30;;;3.90;;
579;SDS011;276;48.392;9.950;2024-03-22T15:26:45;4.10;;;3.70;;